Time,TemperatureF,DewpointF,PressureIn,WindDirection,WindDirectionDegrees,WindSpeedMPH,WindSpeedGustMPH,Humidity,HourlyPrecipIn,Conditions,Clouds,dailyrainin,SoftwareType,DateUTC
2013-03-06 00:02:00,30.0,29.0,29.93,North,355,0.0,0.0,96,0.00,,,0.16,,2013-03-06 06:02:00,
2013-03-06 00:11:00,30.0,29.0,29.93,North,355,0.0,0.0,96,0.00,,,0.16,,2013-03-06 06:11:00,
2013-03-06 00:22:00,30.0,29.0,29.94,NNW,342,0.0,0.0,96,0.00,,,0.16,,2013-03-06 06:22:00,
2013-03-06 00:32:00,30.0,29.0,29.94,NNE,12,0.0,0.0,96,0.00,,,0.16,,2013-03-06 06:32:00,
2013-03-06 00:42:00,30.0,29.0,29.94,NNE,12,0.0,0.0,96,0.00,,,0.16,,2013-03-06 06:42:00,
2013-03-06 00:52:00,29.0,28.0,29.95,NNW,346,0.0,0.0,96,0.00,,,0.16,,2013-03-06 06:52:00,
2013-03-06 01:01:00,29.0,28.0,29.96,NNW,336,0.0,0.0,96,0.00,,,0.16,,2013-03-06 07:01:00,
2013-03-06 01:11:00,29.0,28.0,29.96,NNW,336,0.0,0.0,96,0.00,,,0.16,,2013-03-06 07:11:00,
2013-03-06 01:22:00,29.0,28.0,29.96,North,355,0.0,0.0,96,0.00,,,0.16,,2013-03-06 07:22:00,
2013-03-06 01:32:00,29.0,28.0,29.97,North,355,0.0,0.0,96,0.00,,,0.16,,2013-03-06 07:32:00,
2013-03-06 01:42:00,29.0,28.0,29.97,North,355,0.0,0.0,96,0.00,,,0.16,,2013-03-06 07:42:00,
2013-03-06 01:52:00,29.0,28.0,29.98,NW,312,0.0,0.0,96,0.00,,,0.16,,2013-03-06 07:52:00,
2013-03-06 02:01:00,30.0,29.0,29.99,NNW,339,0.0,0.0,96,0.00,,,0.16,,2013-03-06 08:01:00,
2013-03-06 02:11:00,30.0,29.0,29.99,NNW,339,0.0,0.0,96,0.00,,,0.16,,2013-03-06 08:11:00,
2013-03-06 02:21:00,30.0,29.0,30.00,North,5,0.0,0.0,96,0.00,,,0.16,,2013-03-06 08:21:00,
2013-03-06 02:32:00,30.0,29.0,30.00,NNW,340,0.0,0.0,95,0.00,,,0.16,,2013-03-06 08:32:00,
2013-03-06 02:42:00,30.0,29.0,30.00,NNW,340,0.0,0.0,95,0.00,,,0.16,,2013-03-06 08:42:00,
2013-03-06 02:52:00,29.0,28.0,30.01,North,360,0.0,0.0,95,0.00,,,0.16,,2013-03-06 08:52:00,
2013-03-06 03:01:00,29.0,28.0,30.01,North,5,0.0,0.0,95,0.00,,,0.16,,2013-03-06 09:01:00,
2013-03-06 03:12:00,29.0,28.0,30.01,North,5,0.0,0.0,95,0.00,,,0.16,,2013-03-06 09:12:00,
2013-03-06 03:21:00,29.0,27.0,30.01,NW,321,0.0,0.0,94,0.00,,,0.16,,2013-03-06 09:21:00,
2013-03-06 03:32:00,28.0,27.0,30.02,NW,323,0.0,0.0,94,0.00,,,0.16,,2013-03-06 09:32:00,
2013-03-06 03:42:00,28.0,27.0,30.02,NW,323,0.0,0.0,94,0.00,,,0.16,,2013-03-06 09:42:00,
2013-03-06 03:51:00,28.0,27.0,30.03,North,350,0.0,0.0,94,0.00,,,0.16,,2013-03-06 09:51:00,
2013-03-06 04:01:00,28.0,26.0,30.05,NNW,335,0.0,0.0,93,0.00,,,0.16,,2013-03-06 10:01:00,
2013-03-06 04:11:00,28.0,26.0,30.05,NNW,335,0.0,0.0,93,0.00,,,0.16,,2013-03-06 10:11:00,
2013-03-06 04:22:00,28.0,26.0,30.05,NNW,337,0.0,0.0,93,0.00,,,0.16,,2013-03-06 10:22:00,
2013-03-06 04:32:00,28.0,26.0,30.07,NNE,13,0.0,0.0,93,0.00,,,0.16,,2013-03-06 10:32:00,
2013-03-06 04:42:00,28.0,26.0,30.07,NNE,13,0.0,0.0,93,0.00,,,0.16,,2013-03-06 10:42:00,
2013-03-06 04:51:00,28.0,26.0,30.08,NW,317,0.0,0.0,93,0.00,,,0.16,,2013-03-06 10:51:00,
2013-03-06 05:02:00,28.0,26.0,30.09,NNW,329,0.0,0.0,92,0.00,,,0.16,,2013-03-06 11:02:00,
2013-03-06 05:11:00,28.0,26.0,30.09,NNW,329,0.0,0.0,92,0.00,,,0.16,,2013-03-06 11:11:00,
2013-03-06 05:22:00,28.0,26.0,30.09,North,360,0.0,0.0,93,0.00,,,0.16,,2013-03-06 11:22:00,
2013-03-06 05:32:00,28.0,26.0,30.10,North,355,0.0,0.0,92,0.00,,,0.16,,2013-03-06 11:32:00,
2013-03-06 05:42:00,28.0,26.0,30.10,North,355,0.0,0.0,92,0.00,,,0.16,,2013-03-06 11:42:00,
2013-03-06 05:52:00,28.0,26.0,30.11,North,351,0.0,0.0,92,0.00,,,0.16,,2013-03-06 11:52:00,
2013-03-06 06:02:00,28.0,26.0,30.12,North,349,0.0,0.0,92,0.00,,,0.16,,2013-03-06 12:02:00,
2013-03-06 06:11:00,28.0,26.0,30.12,North,349,0.0,0.0,92,0.00,,,0.16,,2013-03-06 12:11:00,
2013-03-06 06:21:00,28.0,26.0,30.13,North,5,0.0,0.0,92,0.00,,,0.16,,2013-03-06 12:21:00,
2013-03-06 06:33:00,28.0,26.0,30.15,NNW,342,0.0,0.0,92,0.00,,,0.16,,2013-03-06 12:33:00,
2013-03-06 06:42:00,28.0,26.0,30.15,NNW,342,0.0,0.0,92,0.00,,,0.16,,2013-03-06 12:42:00,
2013-03-06 06:52:00,28.0,26.0,30.15,NNW,343,0.0,0.0,92,0.00,,,0.16,,2013-03-06 12:52:00,
2013-03-06 07:02:00,28.0,26.0,30.15,NNW,344,0.0,0.0,92,0.00,,,0.16,,2013-03-06 13:02:00,
2013-03-06 07:12:00,28.0,26.0,30.15,NNW,344,0.0,0.0,92,0.00,,,0.16,,2013-03-06 13:12:00,
2013-03-06 07:22:00,28.0,26.0,30.16,NNE,32,0.0,0.0,92,0.00,,,0.16,,2013-03-06 13:22:00,
2013-03-06 07:32:00,28.0,26.0,30.16,North,10,0.0,0.0,92,0.00,,,0.16,,2013-03-06 13:32:00,
2013-03-06 07:42:00,28.0,26.0,30.16,North,10,0.0,0.0,92,0.00,,,0.16,,2013-03-06 13:42:00,
2013-03-06 07:52:00,28.0,26.0,30.18,North,350,0.0,0.0,92,0.00,,,0.16,,2013-03-06 13:52:00,
2013-03-06 08:01:00,28.0,26.0,30.19,NNW,337,0.0,0.0,91,0.00,,,0.16,,2013-03-06 14:01:00,
2013-03-06 08:11:00,28.0,26.0,30.19,NNW,337,0.0,0.0,91,0.00,,,0.16,,2013-03-06 14:11:00,
2013-03-06 08:22:00,28.0,26.0,30.19,North,9,0.0,0.0,91,0.00,,,0.16,,2013-03-06 14:22:00,
2013-03-06 08:32:00,28.0,26.0,30.20,NNE,22,0.0,0.0,91,0.00,,,0.16,,2013-03-06 14:32:00,
2013-03-06 08:42:00,28.0,26.0,30.20,NNE,22,0.0,0.0,91,0.00,,,0.16,,2013-03-06 14:42:00,
2013-03-06 08:52:00,28.0,26.0,30.21,NNW,328,0.0,0.0,91,0.00,,,0.16,,2013-03-06 14:52:00,
2013-03-06 09:02:00,29.0,27.0,30.22,NNW,345,0.0,0.0,91,0.00,,,0.16,,2013-03-06 15:02:00,
2013-03-06 09:11:00,29.0,27.0,30.22,NNW,345,0.0,0.0,91,0.00,,,0.16,,2013-03-06 15:11:00,
2013-03-06 09:21:00,29.0,27.0,30.22,North,355,0.0,0.0,91,0.00,,,0.16,,2013-03-06 15:21:00,
2013-03-06 09:32:00,29.0,27.0,30.22,NNW,342,0.0,0.0,91,0.00,,,0.16,,2013-03-06 15:32:00,
2013-03-06 09:42:00,29.0,27.0,30.22,NNW,342,0.0,0.0,91,0.00,,,0.16,,2013-03-06 15:42:00,
2013-03-06 09:52:00,29.0,27.0,30.23,NW,304,0.0,0.0,91,0.00,,,0.16,,2013-03-06 15:52:00,
2013-03-06 10:02:00,29.0,27.0,30.23,North,5,6.0,11.0,91,0.00,,,0.16,,2013-03-06 16:02:00,
2013-03-06 10:11:00,29.0,27.0,30.23,North,5,6.0,11.0,91,0.00,,,0.16,,2013-03-06 16:11:00,
2013-03-06 10:21:00,29.0,26.0,30.23,North,360,5.0,11.0,90,0.00,,,0.16,,2013-03-06 16:21:00,
2013-03-06 10:32:00,30.0,27.0,30.24,NNW,339,7.0,12.0,90,0.00,,,0.14,,2013-03-06 16:32:00,
2013-03-06 10:42:00,30.0,27.0,30.24,NNW,339,7.0,12.0,90,0.00,,,0.14,,2013-03-06 16:42:00,
2013-03-06 10:52:00,30.0,27.0,30.24,NNW,343,9.0,15.0,90,0.00,,,0.14,,2013-03-06 16:52:00,
2013-03-06 11:01:00,30.0,27.0,30.25,NW,325,5.0,13.0,90,0.00,,,0.14,,2013-03-06 17:01:00,
2013-03-06 11:11:00,30.0,27.0,30.25,NW,325,5.0,13.0,90,0.00,,,0.14,,2013-03-06 17:11:00,
2013-03-06 11:21:00,30.0,28.0,30.25,NW,319,5.0,10.0,91,0.00,,,0.14,,2013-03-06 17:21:00,
2013-03-06 11:32:00,30.0,27.0,30.26,NNW,342,7.0,11.0,90,0.00,,,0.13,,2013-03-06 17:32:00,
2013-03-06 11:42:00,30.0,27.0,30.26,NNW,342,7.0,11.0,90,0.00,,,0.13,,2013-03-06 17:42:00,
2013-03-06 11:53:00,30.0,27.0,30.26,North,360,8.0,14.0,88,0.00,,,0.13,,2013-03-06 17:53:00,
2013-03-06 12:02:00,30.0,27.0,30.26,NNW,333,9.0,14.0,88,0.01,,,0.14,,2013-03-06 18:02:00,
2013-03-06 12:28:00,31.0,28.0,30.25,NNW,345,6.0,14.0,88,0.02,,,0.15,,2013-03-06 18:28:00,
2013-03-06 12:42:00,31.0,28.0,30.26,NNW,327,7.0,10.0,87,0.03,,,0.14,,2013-03-06 18:42:00,
2013-03-06 12:52:00,31.0,28.0,30.25,NNW,342,8.0,14.0,87,0.04,,,0.15,,2013-03-06 18:52:00,
2013-03-06 13:02:00,31.0,28.0,30.25,NW,324,6.0,14.0,88,0.03,,,0.15,,2013-03-06 19:02:00,
2013-03-06 13:11:00,31.0,28.0,30.25,NW,324,6.0,14.0,88,0.03,,,0.15,,2013-03-06 19:11:00,
2013-03-06 13:22:00,31.0,28.0,30.25,NNW,329,5.0,13.0,88,0.03,,,0.16,,2013-03-06 19:22:00,
2013-03-06 13:32:00,31.0,28.0,30.25,North,360,8.0,14.0,87,0.02,,,0.15,,2013-03-06 19:32:00,
2013-03-06 13:43:00,31.0,28.0,30.25,North,360,8.0,14.0,87,0.02,,,0.15,,2013-03-06 19:43:00,
2013-03-06 13:53:00,31.0,28.0,30.25,NNE,29,4.0,10.0,87,0.02,,,0.16,,2013-03-06 19:53:00,
2013-03-06 14:01:00,31.0,27.0,30.24,NNW,343,8.0,13.0,86,0.03,,,0.17,,2013-03-06 20:01:00,
2013-03-06 14:12:00,31.0,27.0,30.24,NNW,343,8.0,13.0,86,0.03,,,0.17,,2013-03-06 20:12:00,
2013-03-06 14:22:00,31.0,28.0,30.25,NNW,336,7.0,14.0,87,0.02,,,0.17,,2013-03-06 20:22:00,
2013-03-06 14:32:00,31.0,28.0,30.25,NNW,333,6.0,12.0,87,0.02,,,0.14,,2013-03-06 20:32:00,
2013-03-06 14:42:00,31.0,28.0,30.25,NNW,333,6.0,12.0,87,0.02,,,0.14,,2013-03-06 20:42:00,
2013-03-06 14:53:00,31.0,28.0,30.26,North,355,7.0,12.0,87,0.02,,,0.15,,2013-03-06 20:53:00,
2013-03-06 15:02:00,31.0,28.0,30.26,NNW,334,6.0,12.0,87,0.01,,,0.15,,2013-03-06 21:02:00,
2013-03-06 15:11:00,31.0,28.0,30.26,NNW,334,6.0,12.0,87,0.01,,,0.15,,2013-03-06 21:11:00,
2013-03-06 15:22:00,31.0,28.0,30.27,North,360,5.0,10.0,87,0.02,,,0.16,,2013-03-06 21:22:00,
2013-03-06 15:32:00,31.0,28.0,30.27,NNW,331,5.0,11.0,87,0.02,,,0.12,,2013-03-06 21:32:00,
2013-03-06 15:42:00,31.0,28.0,30.27,NNW,331,5.0,11.0,87,0.02,,,0.12,,2013-03-06 21:42:00,
2013-03-06 15:52:00,31.0,28.0,30.27,NNW,342,7.0,12.0,87,0.01,,,0.12,,2013-03-06 21:52:00,
2013-03-06 16:01:00,31.0,28.0,30.28,NNW,346,5.0,12.0,87,0.01,,,0.12,,2013-03-06 22:01:00,
2013-03-06 16:11:00,31.0,28.0,30.28,NNW,346,5.0,12.0,87,0.01,,,0.12,,2013-03-06 22:11:00,
2013-03-06 16:22:00,31.0,28.0,30.29,North,360,4.0,12.0,88,0.00,,,0.12,,2013-03-06 22:22:00,
2013-03-06 16:32:00,30.0,27.0,30.29,NNW,346,6.0,13.0,88,0.01,,,0.11,,2013-03-06 22:32:00,
2013-03-06 16:42:00,30.0,27.0,30.29,NNW,346,6.0,13.0,88,0.01,,,0.11,,2013-03-06 22:42:00,
2013-03-06 16:52:00,30.0,27.0,30.29,North,355,6.0,12.0,88,0.01,,,0.11,,2013-03-06 22:52:00,
2013-03-06 17:01:00,30.0,27.0,30.29,NW,304,4.0,11.0,88,0.01,,,0.11,,2013-03-06 23:01:00,
2013-03-06 17:11:00,30.0,27.0,30.29,NW,304,4.0,11.0,88,0.01,,,0.11,,2013-03-06 23:11:00,
2013-03-06 17:21:00,30.0,27.0,30.30,North,360,4.0,8.0,88,0.01,,,0.11,,2013-03-06 23:21:00,
2013-03-06 17:32:00,30.0,27.0,30.30,North,5,4.0,12.0,88,0.00,,,0.11,,2013-03-06 23:32:00,
2013-03-06 17:42:00,30.0,27.0,30.30,North,5,4.0,12.0,88,0.00,,,0.11,,2013-03-06 23:42:00,
2013-03-06 17:52:00,30.0,27.0,30.30,North,360,4.0,9.0,88,0.00,,,0.11,,2013-03-06 23:52:00,
2013-03-06 18:01:00,30.0,27.0,30.31,NNW,344,5.0,9.0,89,0.00,,,0.11,,2013-03-07 00:01:00,
2013-03-06 18:11:00,30.0,27.0,30.31,NNW,344,5.0,9.0,89,0.00,,,0.11,,2013-03-07 00:11:00,
2013-03-06 18:21:00,29.0,26.0,30.31,North,355,5.0,13.0,89,0.00,,,0.11,,2013-03-07 00:21:00,
2013-03-06 18:32:00,29.0,26.0,30.32,NNW,342,2.0,13.0,88,0.00,,,0.10,,2013-03-07 00:32:00,
2013-03-06 18:42:00,29.0,26.0,30.32,NNW,342,2.0,13.0,88,0.00,,,0.10,,2013-03-07 00:42:00,
2013-03-06 18:52:00,29.0,26.0,30.32,North,355,3.0,9.0,88,0.00,,,0.10,,2013-03-07 00:52:00,
2013-03-06 19:01:00,29.0,26.0,30.32,NNW,346,6.0,10.0,88,0.00,,,0.10,,2013-03-07 01:01:00,
2013-03-06 19:11:00,29.0,26.0,30.32,NNW,346,6.0,10.0,88,0.00,,,0.10,,2013-03-07 01:11:00,
2013-03-06 19:21:00,29.0,26.0,30.32,NW,313,3.0,10.0,89,0.00,,,0.10,,2013-03-07 01:21:00,
2013-03-06 19:31:00,29.0,26.0,30.32,NNE,19,2.0,8.0,89,0.00,,,0.10,,2013-03-07 01:31:00,
2013-03-06 19:42:00,29.0,26.0,30.32,NNE,19,2.0,8.0,89,0.00,,,0.10,,2013-03-07 01:42:00,
2013-03-06 19:52:00,29.0,26.0,30.33,NNW,342,3.0,9.0,89,0.00,,,0.10,,2013-03-07 01:52:00,
2013-03-06 20:01:00,29.0,26.0,30.33,NNW,342,3.0,9.0,89,0.00,,,0.10,,2013-03-07 02:01:00,
2013-03-06 20:11:00,29.0,26.0,30.33,NNW,342,3.0,9.0,89,0.00,,,0.10,,2013-03-07 02:11:00,
2013-03-06 20:21:00,29.0,26.0,30.32,NNW,348,3.0,8.0,89,0.00,,,0.10,,2013-03-07 02:21:00,
2013-03-06 20:32:00,29.0,26.0,30.32,NNW,337,5.0,8.0,89,0.00,,,0.10,,2013-03-07 02:32:00,
2013-03-06 20:42:00,29.0,26.0,30.32,NNW,337,5.0,8.0,89,0.00,,,0.10,,2013-03-07 02:42:00,
2013-03-06 20:52:00,29.0,26.0,30.32,NNW,337,5.0,8.0,89,0.00,,,0.10,,2013-03-07 02:52:00,
2013-03-06 21:02:00,29.0,26.0,30.33,North,355,2.0,11.0,90,0.00,,,0.10,,2013-03-07 03:02:00,
2013-03-06 21:11:00,29.0,26.0,30.33,North,355,2.0,11.0,90,0.00,,,0.10,,2013-03-07 03:11:00,
2013-03-06 21:21:00,29.0,26.0,30.32,North,350,2.0,8.0,90,0.00,,,0.10,,2013-03-07 03:21:00,
2013-03-06 21:32:00,28.0,25.0,30.32,NNW,348,5.0,10.0,90,0.00,,,0.10,,2013-03-07 03:32:00,
2013-03-06 21:42:00,28.0,25.0,30.32,NNW,348,5.0,10.0,90,0.00,,,0.10,,2013-03-07 03:42:00,
2013-03-06 21:52:00,28.0,25.0,30.32,NNW,347,4.0,9.0,90,0.00,,,0.10,,2013-03-07 03:52:00,
2013-03-06 22:01:00,28.0,25.0,30.32,NNW,332,4.0,8.0,90,0.00,,,0.10,,2013-03-07 04:01:00,
2013-03-06 22:11:00,28.0,25.0,30.32,NNW,332,4.0,8.0,90,0.00,,,0.10,,2013-03-07 04:11:00,
2013-03-06 22:21:00,28.0,25.0,30.33,NNW,343,3.0,6.0,90,0.00,,,0.10,,2013-03-07 04:21:00,
2013-03-06 22:31:00,28.0,25.0,30.32,WNW,302,3.0,6.0,90,0.00,,,0.10,,2013-03-07 04:31:00,
2013-03-06 22:42:00,28.0,25.0,30.32,WNW,302,3.0,6.0,90,0.00,,,0.10,,2013-03-07 04:42:00,
2013-03-06 22:52:00,28.0,25.0,30.32,North,360,3.0,9.0,90,0.00,,,0.10,,2013-03-07 04:52:00,
2013-03-06 23:01:00,28.0,25.0,30.32,North,360,2.0,6.0,90,0.00,,,0.10,,2013-03-07 05:01:00,
2013-03-06 23:12:00,28.0,25.0,30.32,North,360,2.0,6.0,90,0.00,,,0.10,,2013-03-07 05:12:00,
2013-03-06 23:22:00,28.0,25.0,30.32,NNW,346,4.0,7.0,90,0.00,,,0.10,,2013-03-07 05:22:00,
2013-03-06 23:32:00,28.0,25.0,30.32,North,349,3.0,6.0,90,0.00,,,0.10,,2013-03-07 05:32:00,
2013-03-06 23:42:00,28.0,25.0,30.32,North,349,3.0,6.0,90,0.00,,,0.10,,2013-03-07 05:42:00,
2013-03-06 23:52:00,28.0,26.0,30.32,NNW,346,2.0,5.0,91,0.00,,,0.10,,2013-03-07 05:52:00,